Main page
METAR-TAF:

METAR-TAF

Airports :

Nîmes–Alès–Camargue–Cévennes Airport

Nîmes, France

latitude: 43-45N, longitude: 004-25E, elevation: 94 m

Current weather observation

The report was made 39 minutes ago, at 22:30 UTC
Wind 8 kt from the East/Southeast
Temperature 10°C
Humidity 71%
Pressure 1022 hPa
Visibility 10 km or more
Few clouds at a height of 2900 ft
Broken clouds at a height of 3900 ft
Broken clouds at a height of 23000 ft

METAR: LFTW 242230Z AUTO 11008KT 9999 FEW029 BKN039 BKN230 10/05 Q1022

Time: 00:09 (23:09 UTC)

Forecast

The report was made 9 hours and 9 minutes ago, at 14:00 UTC
Forecast valid from 24 at 15 UTC to 25 at 15 UTC
Wind 5 kt from the Northeast
Visibility 10 km or more
Broken clouds at a height of 3000 ft
Becoming
from 25 at 01 UTC to 25 at 03 UTC
Wind 10 kt from the East/Southeast
Temporary
from 25 at 01 UTC to 25 at 11 UTC
Broken clouds at a height of 1200 ft
light rain

TAF: LFTW 241400Z 2415/2515 04005KT 9999 BKN030 BECMG 2501/2503 11010KT TEMPO 2501/2511 -RA BKN012

Weather observations and forecasts of more than 4000 airports (METAR and TAF reports).

The available stations are represented by yellow and red dots on the map.

Hover mouse over dot to see the name of the station.

Then click to see weather observations and forecasts.

To change the map : click on the green buttons with a black cross to zoom in, on the green button with a dash to zoom out, or on the green arrows for adjacent maps.


METAR-TAF: